<?xml version="1.0" encoding="UTF-8"?><gpx creator="Wikiloc - https://www.wikiloc.com" version="1.1" xmlns="http://www.topografix.com/GPX/1/1" xmlns:xsi="http://www.w3.org/2001/XMLSchema-instance" xsi:schemaLocation="http://www.topografix.com/GPX/1/1 http://www.topografix.com/GPX/1/1/gpx.xsd"><metadata><name>Wikiloc - Paseos Rurales - Castillo de Herrera del Duque</name><author><name>Red Extremeña de Desarrollo Rural (REDEX)</name><link href="https://www.wikiloc.com/wikiloc/user.do?id=2006209"><text>Red Extremeña de Desarrollo Rural (REDEX) on Wikiloc</text></link></author><link href="https://www.wikiloc.com/hiking-trails/paseos-rurales-castillo-de-herrera-del-duque-32305762"><text>Paseos Rurales - Castillo de Herrera del Duque on Wikiloc</text></link><time>2019-01-17T15:37:22Z</time></metadata><trk><name>Paseos Rurales - Castillo de Herrera del Duque</name><cmt></cmt><desc></desc><trkseg><trkpt lat="39.171459" lon="-5.050266"><ele>450.029</ele><time>2019-01-17T14:07:13Z</time></trkpt><trkpt lat="39.171271" lon="-5.049167"><ele>448.400</ele><time>2019-01-17T14:07:45Z</time></trkpt><trkpt lat="39.169588" lon="-5.049873"><ele>452.820</ele><time>2019-01-17T14:08:17Z</time></trkpt><trkpt lat="39.169459" lon="-5.050023"><ele>454.008</ele><time>2019-01-17T14:08:49Z</time></trkpt><trkpt lat="39.169265" lon="-5.049816"><ele>454.085</ele><time>2019-01-17T14:09:22Z</time></trkpt><trkpt lat="39.168385" lon="-5.048870"><ele>453.514</ele><time>2019-01-17T14:09:54Z</time></trkpt><trkpt lat="39.168116" lon="-5.048612"><ele>452.885</ele><time>2019-01-17T14:10:26Z</time></trkpt><trkpt lat="39.167738" lon="-5.048674"><ele>455.142</ele><time>2019-01-17T14:10:58Z</time></trkpt><trkpt lat="39.166976" lon="-5.048572"><ele>457.847</ele><time>2019-01-17T14:11:30Z</time></trkpt><trkpt lat="39.166836" lon="-5.047848"><ele>458.749</ele><time>2019-01-17T14:12:03Z</time></trkpt><trkpt lat="39.167174" lon="-5.047449"><ele>456.878</ele><time>2019-01-17T14:12:35Z</time></trkpt><trkpt lat="39.167349" lon="-5.046948"><ele>458.524</ele><time>2019-01-17T14:13:07Z</time></trkpt><trkpt lat="39.167456" lon="-5.046250"><ele>458.629</ele><time>2019-01-17T14:13:39Z</time></trkpt><trkpt lat="39.167593" lon="-5.045977"><ele>459.800</ele><time>2019-01-17T14:14:11Z</time></trkpt><trkpt lat="39.167579" lon="-5.045827"><ele>460.820</ele><time>2019-01-17T14:14:43Z</time></trkpt><trkpt lat="39.167684" lon="-5.045527"><ele>461.808</ele><time>2019-01-17T14:15:16Z</time></trkpt><trkpt lat="39.167786" lon="-5.045159"><ele>462.485</ele><time>2019-01-17T14:15:48Z</time></trkpt><trkpt lat="39.167982" lon="-5.044824"><ele>462.324</ele><time>2019-01-17T14:16:20Z</time></trkpt><trkpt lat="39.168151" lon="-5.044371"><ele>465.285</ele><time>2019-01-17T14:16:52Z</time></trkpt><trkpt lat="39.167907" lon="-5.044175"><ele>467.022</ele><time>2019-01-17T14:17:24Z</time></trkpt><trkpt lat="39.167477" lon="-5.045035"><ele>464.847</ele><time>2019-01-17T14:17:57Z</time></trkpt><trkpt lat="39.167203" lon="-5.045789"><ele>461.139</ele><time>2019-01-17T14:18:29Z</time></trkpt><trkpt lat="39.167122" lon="-5.046016"><ele>459.988</ele><time>2019-01-17T14:19:01Z</time></trkpt><trkpt lat="39.167040" lon="-5.045899"><ele>460.794</ele><time>2019-01-17T14:19:33Z</time></trkpt><trkpt lat="39.166884" lon="-5.045491"><ele>461.136</ele><time>2019-01-17T14:20:05Z</time></trkpt><trkpt lat="39.166568" lon="-5.045011"><ele>463.717</ele><time>2019-01-17T14:20:38Z</time></trkpt><trkpt lat="39.166220" lon="-5.044693"><ele>467.318</ele><time>2019-01-17T14:21:10Z</time></trkpt><trkpt lat="39.166054" lon="-5.044790"><ele>468.108</ele><time>2019-01-17T14:21:42Z</time></trkpt><trkpt lat="39.165888" lon="-5.043894"><ele>474.466</ele><time>2019-01-17T14:22:14Z</time></trkpt><trkpt lat="39.165850" lon="-5.043443"><ele>475.985</ele><time>2019-01-17T14:22:46Z</time></trkpt><trkpt lat="39.165893" lon="-5.042816"><ele>478.776</ele><time>2019-01-17T14:23:19Z</time></trkpt><trkpt lat="39.165544" lon="-5.042134"><ele>487.463</ele><time>2019-01-17T14:23:51Z</time></trkpt><trkpt lat="39.165187" lon="-5.041428"><ele>492.368</ele><time>2019-01-17T14:24:23Z</time></trkpt><trkpt lat="39.164934" lon="-5.041009"><ele>499.790</ele><time>2019-01-17T14:24:55Z</time></trkpt><trkpt lat="39.164773" lon="-5.041031"><ele>503.759</ele><time>2019-01-17T14:25:27Z</time></trkpt><trkpt lat="39.164500" lon="-5.040950"><ele>508.385</ele><time>2019-01-17T14:26:00Z</time></trkpt><trkpt lat="39.163883" lon="-5.040586"><ele>517.193</ele><time>2019-01-17T14:26:32Z</time></trkpt><trkpt lat="39.163717" lon="-5.040457"><ele>519.965</ele><time>2019-01-17T14:27:04Z</time></trkpt><trkpt lat="39.163218" lon="-5.039722"><ele>536.221</ele><time>2019-01-17T14:27:36Z</time></trkpt><trkpt lat="39.163143" lon="-5.039717"><ele>538.908</ele><time>2019-01-17T14:28:08Z</time></trkpt><trkpt lat="39.162633" lon="-5.040323"><ele>546.472</ele><time>2019-01-17T14:28:41Z</time></trkpt><trkpt lat="39.162397" lon="-5.040543"><ele>548.821</ele><time>2019-01-17T14:29:13Z</time></trkpt><trkpt lat="39.162215" lon="-5.040618"><ele>551.522</ele><time>2019-01-17T14:29:45Z</time></trkpt><trkpt lat="39.161733" lon="-5.040311"><ele>562.559</ele><time>2019-01-17T14:30:17Z</time></trkpt><trkpt lat="39.161626" lon="-5.039834"><ele>569.014</ele><time>2019-01-17T14:30:49Z</time></trkpt><trkpt lat="39.161604" lon="-5.039597"><ele>570.896</ele><time>2019-01-17T14:31:22Z</time></trkpt><trkpt lat="39.161572" lon="-5.039120"><ele>576.275</ele><time>2019-01-17T14:31:54Z</time></trkpt><trkpt lat="39.161577" lon="-5.038782"><ele>582.161</ele><time>2019-01-17T14:32:26Z</time></trkpt><trkpt lat="39.161668" lon="-5.038267"><ele>589.485</ele><time>2019-01-17T14:32:58Z</time></trkpt><trkpt lat="39.161524" lon="-5.038074"><ele>597.789</ele><time>2019-01-17T14:33:30Z</time></trkpt><trkpt lat="39.161288" lon="-5.037817"><ele>612.217</ele><time>2019-01-17T14:34:03Z</time></trkpt><trkpt lat="39.161025" lon="-5.037430"><ele>628.908</ele><time>2019-01-17T14:34:35Z</time></trkpt><trkpt lat="39.160869" lon="-5.037167"><ele>640.891</ele><time>2019-01-17T14:35:07Z</time></trkpt><trkpt lat="39.160451" lon="-5.036711"><ele>655.970</ele><time>2019-01-17T14:35:39Z</time></trkpt><trkpt lat="39.160472" lon="-5.036486"><ele>659.821</ele><time>2019-01-17T14:36:11Z</time></trkpt><trkpt lat="39.160617" lon="-5.035928"><ele>672.248</ele><time>2019-01-17T14:36:44Z</time></trkpt><trkpt lat="39.160692" lon="-5.035494"><ele>684.523</ele><time>2019-01-17T14:37:16Z</time></trkpt><trkpt lat="39.160596" lon="-5.035199"><ele>692.375</ele><time>2019-01-17T14:37:48Z</time></trkpt><trkpt lat="39.160445" lon="-5.035076"><ele>693.464</ele><time>2019-01-17T14:38:20Z</time></trkpt><trkpt lat="39.160483" lon="-5.034979"><ele>696.640</ele><time>2019-01-17T14:38:52Z</time></trkpt><trkpt lat="39.160671" lon="-5.034888"><ele>700.519</ele><time>2019-01-17T14:39:24Z</time></trkpt><trkpt lat="39.160896" lon="-5.034502"><ele>711.509</ele><time>2019-01-17T14:39:57Z</time></trkpt><trkpt lat="39.161041" lon="-5.034008"><ele>721.919</ele><time>2019-01-17T14:40:29Z</time></trkpt><trkpt lat="39.161127" lon="-5.033611"><ele>723.908</ele><time>2019-01-17T14:41:01Z</time></trkpt><trkpt lat="39.161132" lon="-5.033086"><ele>719.084</ele><time>2019-01-17T14:41:33Z</time></trkpt><trkpt lat="39.161030" lon="-5.032807"><ele>719.243</ele><time>2019-01-17T14:42:05Z</time></trkpt><trkpt lat="39.160767" lon="-5.032753"><ele>722.564</ele><time>2019-01-17T14:42:38Z</time></trkpt><trkpt lat="39.160542" lon="-5.032812"><ele>724.731</ele><time>2019-01-17T14:43:10Z</time></trkpt><trkpt lat="39.160381" lon="-5.032882"><ele>724.786</ele><time>2019-01-17T14:43:42Z</time></trkpt><trkpt lat="39.160048" lon="-5.032785"><ele>719.478</ele><time>2019-01-17T14:44:14Z</time></trkpt><trkpt lat="39.159791" lon="-5.032576"><ele>713.897</ele><time>2019-01-17T14:44:46Z</time></trkpt><trkpt lat="39.159603" lon="-5.032340"><ele>706.713</ele><time>2019-01-17T14:45:19Z</time></trkpt><trkpt lat="39.159528" lon="-5.032426"><ele>706.818</ele><time>2019-01-17T14:45:51Z</time></trkpt><trkpt lat="39.159410" lon="-5.032769"><ele>706.798</ele><time>2019-01-17T14:46:23Z</time></trkpt><trkpt lat="39.159367" lon="-5.033300"><ele>701.117</ele><time>2019-01-17T14:46:55Z</time></trkpt><trkpt lat="39.159432" lon="-5.033756"><ele>692.908</ele><time>2019-01-17T14:47:27Z</time></trkpt><trkpt lat="39.159480" lon="-5.033928"><ele>690.594</ele><time>2019-01-17T14:48:00Z</time></trkpt><trkpt lat="39.159314" lon="-5.033848"><ele>686.313</ele><time>2019-01-17T14:48:32Z</time></trkpt><trkpt lat="39.159013" lon="-5.033788"><ele>679.214</ele><time>2019-01-17T14:49:04Z</time></trkpt><trkpt lat="39.158745" lon="-5.033687"><ele>675.181</ele><time>2019-01-17T14:49:36Z</time></trkpt><trkpt lat="39.158530" lon="-5.033510"><ele>670.826</ele><time>2019-01-17T14:50:08Z</time></trkpt><trkpt lat="39.158477" lon="-5.033343"><ele>670.628</ele><time>2019-01-17T14:50:41Z</time></trkpt><trkpt lat="39.158380" lon="-5.032496"><ele>668.337</ele><time>2019-01-17T14:51:13Z</time></trkpt><trkpt lat="39.158305" lon="-5.032034"><ele>660.473</ele><time>2019-01-17T14:51:45Z</time></trkpt><trkpt lat="39.158331" lon="-5.031542"><ele>655.113</ele><time>2019-01-17T14:52:17Z</time></trkpt><trkpt lat="39.158310" lon="-5.031360"><ele>651.943</ele><time>2019-01-17T14:52:49Z</time></trkpt><trkpt lat="39.158068" lon="-5.031752"><ele>649.607</ele><time>2019-01-17T14:53:22Z</time></trkpt><trkpt lat="39.157859" lon="-5.032020"><ele>646.908</ele><time>2019-01-17T14:53:54Z</time></trkpt><trkpt lat="39.157720" lon="-5.032358"><ele>644.844</ele><time>2019-01-17T14:54:26Z</time></trkpt><trkpt lat="39.157698" lon="-5.032696"><ele>645.233</ele><time>2019-01-17T14:54:58Z</time></trkpt><trkpt lat="39.157698" lon="-5.033045"><ele>644.584</ele><time>2019-01-17T14:55:30Z</time></trkpt><trkpt lat="39.157731" lon="-5.033420"><ele>644.741</ele><time>2019-01-17T14:56:03Z</time></trkpt><trkpt lat="39.157849" lon="-5.033806"><ele>646.766</ele><time>2019-01-17T14:56:35Z</time></trkpt><trkpt lat="39.157865" lon="-5.034203"><ele>642.768</ele><time>2019-01-17T14:57:07Z</time></trkpt><trkpt lat="39.157929" lon="-5.034504"><ele>638.127</ele><time>2019-01-17T14:57:39Z</time></trkpt><trkpt lat="39.158090" lon="-5.034718"><ele>634.793</ele><time>2019-01-17T14:58:11Z</time></trkpt><trkpt lat="39.158443" lon="-5.034879"><ele>638.419</ele><time>2019-01-17T14:58:44Z</time></trkpt><trkpt lat="39.158695" lon="-5.035067"><ele>640.809</ele><time>2019-01-17T14:59:16Z</time></trkpt><trkpt lat="39.158926" lon="-5.035448"><ele>637.819</ele><time>2019-01-17T14:59:48Z</time></trkpt><trkpt lat="39.159017" lon="-5.035952"><ele>633.308</ele><time>2019-01-17T15:00:20Z</time></trkpt><trkpt lat="39.159076" lon="-5.036483"><ele>630.794</ele><time>2019-01-17T15:00:52Z</time></trkpt><trkpt lat="39.159017" lon="-5.037127"><ele>629.893</ele><time>2019-01-17T15:01:24Z</time></trkpt><trkpt lat="39.158813" lon="-5.037524"><ele>632.324</ele><time>2019-01-17T15:01:57Z</time></trkpt><trkpt lat="39.158588" lon="-5.037749"><ele>631.841</ele><time>2019-01-17T15:02:29Z</time></trkpt><trkpt lat="39.158314" lon="-5.037829"><ele>627.816</ele><time>2019-01-17T15:03:01Z</time></trkpt><trkpt lat="39.157987" lon="-5.038082"><ele>623.928</ele><time>2019-01-17T15:03:33Z</time></trkpt><trkpt lat="39.157746" lon="-5.038393"><ele>626.157</ele><time>2019-01-17T15:04:05Z</time></trkpt><trkpt lat="39.157606" lon="-5.038763"><ele>631.823</ele><time>2019-01-17T15:04:38Z</time></trkpt><trkpt lat="39.157628" lon="-5.039020"><ele>633.522</ele><time>2019-01-17T15:05:10Z</time></trkpt><trkpt lat="39.157520" lon="-5.039272"><ele>632.762</ele><time>2019-01-17T15:05:42Z</time></trkpt><trkpt lat="39.157172" lon="-5.039219"><ele>634.208</ele><time>2019-01-17T15:06:14Z</time></trkpt><trkpt lat="39.157005" lon="-5.039278"><ele>635.508</ele><time>2019-01-17T15:06:46Z</time></trkpt><trkpt lat="39.157005" lon="-5.039417"><ele>634.575</ele><time>2019-01-17T15:07:19Z</time></trkpt><trkpt lat="39.157392" lon="-5.039632"><ele>628.624</ele><time>2019-01-17T15:07:51Z</time></trkpt><trkpt lat="39.158298" lon="-5.040243"><ele>620.635</ele><time>2019-01-17T15:08:23Z</time></trkpt><trkpt lat="39.158921" lon="-5.040850"><ele>609.762</ele><time>2019-01-17T15:08:55Z</time></trkpt><trkpt lat="39.159462" lon="-5.041059"><ele>602.837</ele><time>2019-01-17T15:09:27Z</time></trkpt><trkpt lat="39.160273" lon="-5.040967"><ele>588.899</ele><time>2019-01-17T15:10:00Z</time></trkpt><trkpt lat="39.160643" lon="-5.040725"><ele>584.768</ele><time>2019-01-17T15:10:32Z</time></trkpt><trkpt lat="39.161045" lon="-5.040446"><ele>577.664</ele><time>2019-01-17T15:11:04Z</time></trkpt><trkpt lat="39.161378" lon="-5.040001"><ele>573.325</ele><time>2019-01-17T15:11:36Z</time></trkpt><trkpt lat="39.161539" lon="-5.039803"><ele>570.926</ele><time>2019-01-17T15:12:08Z</time></trkpt><trkpt lat="39.161649" lon="-5.040033"><ele>567.008</ele><time>2019-01-17T15:12:41Z</time></trkpt><trkpt lat="39.161681" lon="-5.040409"><ele>561.508</ele><time>2019-01-17T15:13:13Z</time></trkpt><trkpt lat="39.161402" lon="-5.041053"><ele>554.265</ele><time>2019-01-17T15:13:45Z</time></trkpt><trkpt lat="39.161160" lon="-5.041628"><ele>546.654</ele><time>2019-01-17T15:14:17Z</time></trkpt><trkpt lat="39.160973" lon="-5.042416"><ele>532.325</ele><time>2019-01-17T15:14:49Z</time></trkpt><trkpt lat="39.160678" lon="-5.043060"><ele>526.242</ele><time>2019-01-17T15:15:22Z</time></trkpt><trkpt lat="39.160501" lon="-5.043736"><ele>518.777</ele><time>2019-01-17T15:15:54Z</time></trkpt><trkpt lat="39.160206" lon="-5.044348"><ele>515.529</ele><time>2019-01-17T15:16:26Z</time></trkpt><trkpt lat="39.160157" lon="-5.045260"><ele>504.658</ele><time>2019-01-17T15:16:58Z</time></trkpt><trkpt lat="39.160619" lon="-5.045855"><ele>499.744</ele><time>2019-01-17T15:17:30Z</time></trkpt><trkpt lat="39.160849" lon="-5.046161"><ele>497.668</ele><time>2019-01-17T15:18:03Z</time></trkpt><trkpt lat="39.161273" lon="-5.046354"><ele>491.342</ele><time>2019-01-17T15:18:35Z</time></trkpt><trkpt lat="39.161514" lon="-5.046644"><ele>490.026</ele><time>2019-01-17T15:19:07Z</time></trkpt><trkpt lat="39.161799" lon="-5.046998"><ele>487.908</ele><time>2019-01-17T15:19:39Z</time></trkpt><trkpt lat="39.162491" lon="-5.047491"><ele>483.179</ele><time>2019-01-17T15:20:11Z</time></trkpt><trkpt lat="39.162947" lon="-5.047738"><ele>481.168</ele><time>2019-01-17T15:20:44Z</time></trkpt><trkpt lat="39.163768" lon="-5.047180"><ele>472.939</ele><time>2019-01-17T15:21:16Z</time></trkpt><trkpt lat="39.164364" lon="-5.047738"><ele>469.216</ele><time>2019-01-17T15:21:48Z</time></trkpt><trkpt lat="39.164723" lon="-5.047990"><ele>466.541</ele><time>2019-01-17T15:22:20Z</time></trkpt><trkpt lat="39.164803" lon="-5.047529"><ele>469.233</ele><time>2019-01-17T15:22:52Z</time></trkpt><trkpt lat="39.164889" lon="-5.047475"><ele>468.982</ele><time>2019-01-17T15:23:24Z</time></trkpt><trkpt lat="39.164944" lon="-5.047046"><ele>469.468</ele><time>2019-01-17T15:23:57Z</time></trkpt><trkpt lat="39.165322" lon="-5.047164"><ele>467.835</ele><time>2019-01-17T15:24:29Z</time></trkpt><trkpt lat="39.165695" lon="-5.047234"><ele>466.586</ele><time>2019-01-17T15:25:01Z</time></trkpt><trkpt lat="39.165705" lon="-5.047609"><ele>465.614</ele><time>2019-01-17T15:25:33Z</time></trkpt><trkpt lat="39.166091" lon="-5.047792"><ele>465.008</ele><time>2019-01-17T15:26:05Z</time></trkpt><trkpt lat="39.166036" lon="-5.047966"><ele>463.936</ele><time>2019-01-17T15:26:38Z</time></trkpt><trkpt lat="39.166025" lon="-5.048229"><ele>462.725</ele><time>2019-01-17T15:27:10Z</time></trkpt><trkpt lat="39.166020" lon="-5.048389"><ele>462.256</ele><time>2019-01-17T15:27:42Z</time></trkpt><trkpt lat="39.166771" lon="-5.048695"><ele>457.973</ele><time>2019-01-17T15:28:14Z</time></trkpt><trkpt lat="39.166808" lon="-5.049065"><ele>458.138</ele><time>2019-01-17T15:28:46Z</time></trkpt><trkpt lat="39.166894" lon="-5.049516"><ele>458.860</ele><time>2019-01-17T15:29:19Z</time></trkpt><trkpt lat="39.167018" lon="-5.049693"><ele>459.829</ele><time>2019-01-17T15:29:51Z</time></trkpt><trkpt lat="39.166948" lon="-5.049988"><ele>461.085</ele><time>2019-01-17T15:30:23Z</time></trkpt><trkpt lat="39.166884" lon="-5.050305"><ele>462.613</ele><time>2019-01-17T15:30:55Z</time></trkpt><trkpt lat="39.167093" lon="-5.050707"><ele>463.543</ele><time>2019-01-17T15:31:27Z</time></trkpt><trkpt lat="39.167506" lon="-5.051147"><ele>463.907</ele><time>2019-01-17T15:32:00Z</time></trkpt><trkpt lat="39.168058" lon="-5.050573"><ele>461.108</ele><time>2019-01-17T15:32:32Z</time></trkpt><trkpt lat="39.168407" lon="-5.050798"><ele>461.244</ele><time>2019-01-17T15:33:04Z</time></trkpt><trkpt lat="39.169078" lon="-5.051383"><ele>458.363</ele><time>2019-01-17T15:33:36Z</time></trkpt><trkpt lat="39.169800" lon="-5.052020"><ele>459.394</ele><time>2019-01-17T15:34:08Z</time></trkpt><trkpt lat="39.170197" lon="-5.052352"><ele>460.781</ele><time>2019-01-17T15:34:41Z</time></trkpt><trkpt lat="39.170900" lon="-5.052937"><ele>458.416</ele><time>2019-01-17T15:35:13Z</time></trkpt><trkpt lat="39.171372" lon="-5.051145"><ele>453.128</ele><time>2019-01-17T15:35:45Z</time></trkpt><trkpt lat="39.171281" lon="-5.050893"><ele>452.237</ele><time>2019-01-17T15:36:17Z</time></trkpt><trkpt lat="39.171313" lon="-5.050486"><ele>451.093</ele><time>2019-01-17T15:36:49Z</time></trkpt><trkpt lat="39.171388" lon="-5.050357"><ele>450.385</ele><time>2019-01-17T15:37:22Z</time></trkpt></trkseg></trk></gpx>